AAL84 KSAN-KSFO
Flight info
| Callsign | AAL84 |
|---|---|
| Flight time | N/A |
| Altitude | 36000 |
| Route | PADRZ2 IKAYE RIZIN SPLNT STOKD SERFR SERFR4 |
| Aircraft | B763/H-SDE3FGHIM3RWXY/LB1 |
Departure
| Time | N/A |
|---|---|
| Airport | San Diego International Airport (KSAN) |
Arrival
| Time | 2026-05-03 20:20 |
|---|---|
| Airport | San Francisco International Airport (KSFO) |
| Time | Latitude | Longitude | Altitude | Speed | Heading |
|---|---|---|---|---|---|
| 2026-05-03 20:15 | 37.42479 | -122.13575 | 4941 ft | 287 kts | 345° |
| 2026-05-03 20:15 | 37.44310 | -122.14202 | 4673 ft | 265 kts | 344° |
| 2026-05-03 20:15 | 37.46113 | -122.14809 | 4420 ft | 267 kts | 345° |
| 2026-05-03 20:15 | 37.47907 | -122.15399 | 4049 ft | 270 kts | 344° |
| 2026-05-03 20:16 | 37.49749 | -122.16007 | 3585 ft | 276 kts | 344° |
| 2026-05-03 20:16 | 37.51586 | -122.16618 | 3208 ft | 274 kts | 342° |
| 2026-05-03 20:16 | 37.53186 | -122.17622 | 2996 ft | 243 kts | 321° |
| 2026-05-03 20:16 | 37.54295 | -122.19095 | 2785 ft | 218 kts | 299° |
| 2026-05-03 20:17 | 37.54998 | -122.20680 | 2601 ft | 199 kts | 296° |
| 2026-05-03 20:17 | 37.55652 | -122.22187 | 2420 ft | 194 kts | 296° |
| 2026-05-03 20:17 | 37.56290 | -122.23675 | 2205 ft | 193 kts | 296° |
| 2026-05-03 20:17 | 37.56912 | -122.25139 | 2006 ft | 186 kts | 296° |
| 2026-05-03 20:18 | 37.57510 | -122.26552 | 1723 ft | 174 kts | 295° |
| 2026-05-03 20:18 | 37.58057 | -122.27848 | 1459 ft | 160 kts | 296° |
| 2026-05-03 20:18 | 37.58559 | -122.29046 | 1228 ft | 150 kts | 296° |
| 2026-05-03 20:18 | 37.59034 | -122.30176 | 1008 ft | 142 kts | 295° |
| 2026-05-03 20:19 | 37.59488 | -122.31260 | 819 ft | 140 kts | 295° |
| 2026-05-03 20:19 | 37.59939 | -122.32338 | 649 ft | 141 kts | 295° |
| 2026-05-03 20:19 | 37.60402 | -122.33438 | 474 ft | 144 kts | 295° |
| 2026-05-03 20:19 | 37.60872 | -122.34564 | 275 ft | 145 kts | 296° |
| 2026-05-03 20:20 | 37.61347 | -122.35690 | 52 ft | 144 kts | 295° |
| 2026-05-03 20:20 | 37.61791 | -122.36755 | 15 ft | 125 kts | 295° |
| 2026-05-03 20:20 | 37.62126 | -122.37562 | 26 ft | 84 kts | 297° |
| 2026-05-03 20:20 | 37.62318 | -122.38022 | 31 ft | 33 kts | 297° |
| 2026-05-03 20:21 | 37.62278 | -122.38257 | 32 ft | 24 kts | 208° |
| 2026-05-03 20:21 | 37.62155 | -122.38313 | 34 ft | 16 kts | 193° |
| 2026-05-03 20:21 | 37.62058 | -122.38351 | 34 ft | 12 kts | 219° |
| 2026-05-03 20:21 | 37.62057 | -122.38430 | 34 ft | 8 kts | 294° |
| 2026-05-03 20:22 | 37.62088 | -122.38493 | 34 ft | 10 kts | 297° |
| 2026-05-03 20:22 | 37.62103 | -122.38586 | 34 ft | 10 kts | 257° |
| 2026-05-03 20:22 | 37.62092 | -122.38639 | 34 ft | 0 kts | 255° |